Time;durP1;ratioP1;P1;durP2;ratioP2;P2;SDS_P1;SDS_P2;PMS_P1;PMS_P2;Temp;Humidity;BMP_temperature;BMP_pressure;BME280_temperature;BME280_humidity;BME280_pressure;Samples;Min_cycle;Max_cycle;Signal;HPM_P1;HPM_P2
2022/07/04 00:00:24;;;;;;;0.00;0.00;;;15.60;76.30;;;;;;5051343;28;20410;-70
2022/07/04 00:02:51;;;;;;;0.05;0.05;;;15.60;76.00;;;;;;5051002;28;20164;-70
2022/07/04 00:05:18;;;;;;;0.00;0.00;;;15.60;75.50;;;;;;5050766;28;20059;-70
2022/07/04 00:07:46;;;;;;;0.00;0.00;;;15.60;75.50;;;;;;5051204;28;20076;-70
2022/07/04 00:10:15;;;;;;;0.00;0.00;;;15.60;75.70;;;;;;5051240;28;20474;-70
2022/07/04 00:12:41;;;;;;;0.00;0.00;;;15.50;75.80;;;;;;5065392;28;20056;-70
2022/07/04 00:15:10;;;;;;;0.00;0.00;;;15.60;75.90;;;;;;5066478;28;20048;-70
2022/07/04 00:17:35;;;;;;;0.00;0.00;;;15.50;76.30;;;;;;5051477;28;20098;-70
2022/07/04 00:20:01;;;;;;;0.00;0.00;;;15.60;76.30;;;;;;5051179;28;20037;-70
2022/07/04 00:22:27;;;;;;;0.00;0.00;;;15.60;76.20;;;;;;5049968;28;20056;-70
2022/07/04 00:24:53;;;;;;;0.00;0.00;;;15.60;76.40;;;;;;5051137;28;20063;-70
2022/07/04 00:27:18;;;;;;;0.03;0.03;;;15.60;76.50;;;;;;5050986;28;20402;-70
2022/07/04 00:29:44;;;;;;;0.00;0.00;;;15.60;76.50;;;;;;5050782;28;20040;-70
2022/07/04 00:32:10;;;;;;;0.00;0.00;;;15.60;76.60;;;;;;5051205;28;20464;-70
2022/07/04 00:34:37;;;;;;;0.00;0.00;;;15.60;76.50;;;;;;5050803;28;20047;-70
2022/07/04 00:37:03;;;;;;;0.00;0.00;;;15.60;77.10;;;;;;5050538;28;20037;-70
2022/07/04 00:39:28;;;;;;;0.00;0.00;;;15.60;77.10;;;;;;5050658;28;20175;-70
2022/07/04 00:41:54;;;;;;;0.00;0.00;;;15.60;77.30;;;;;;5066452;28;20117;-70
2022/07/04 00:44:20;;;;;;;0.00;0.00;;;15.60;77.30;;;;;;5058842;28;20114;-72
2022/07/04 00:46:46;;;;;;;0.00;0.00;;;15.60;77.50;;;;;;5050773;28;20047;-70
2022/07/04 00:49:14;;;;;;;0.00;0.00;;;15.60;77.70;;;;;;5050490;28;20484;-70
2022/07/04 00:51:41;;;;;;;0.00;0.00;;;15.60;77.70;;;;;;5050902;28;20066;-70
2022/07/04 00:54:08;;;;;;;0.00;0.00;;;15.60;78.00;;;;;;5050156;28;20041;-70
2022/07/04 00:56:40;;;;;;;0.00;0.00;;;15.50;78.10;;;;;;5065595;28;20048;-70
2022/07/04 00:59:06;;;;;;;0.00;0.00;;;15.50;78.50;;;;;;5062608;28;20094;-70
2022/07/04 01:01:33;;;;;;;0.00;0.00;;;15.50;78.20;;;;;;5051329;28;20110;-70
2022/07/04 01:04:00;;;;;;;0.00;0.00;;;15.50;78.60;;;;;;5051078;28;20041;-70
2022/07/04 01:06:26;;;;;;;0.00;0.00;;;15.50;79.10;;;;;;5066326;28;20091;-70
2022/07/04 01:08:52;;;;;;;0.00;0.00;;;15.40;79.30;;;;;;5051006;28;20072;-69
2022/07/04 01:11:17;;;;;;;0.00;0.00;;;15.40;80.00;;;;;;5051315;28;20462;-70
2022/07/04 01:13:43;;;;;;;0.00;0.00;;;15.40;80.30;;;;;;5051084;28;20045;-70
2022/07/04 01:16:10;;;;;;;0.00;0.00;;;15.30;79.90;;;;;;5067722;28;20041;-70
2022/07/04 01:18:37;;;;;;;0.00;0.00;;;15.40;80.00;;;;;;5059815;28;20049;-70
2022/07/04 01:21:04;;;;;;;0.00;0.00;;;15.30;80.60;;;;;;5066338;28;20850;-70
2022/07/04 01:23:29;;;;;;;0.00;0.00;;;15.30;80.20;;;;;;5051157;28;20053;-70
2022/07/04 01:25:56;;;;;;;0.05;0.05;;;15.40;80.50;;;;;;5050764;28;20044;-70
2022/07/04 01:28:23;;;;;;;0.00;0.00;;;15.40;80.30;;;;;;5050874;28;20048;-70
2022/07/04 01:30:49;;;;;;;0.00;0.00;;;15.40;80.10;;;;;;5049661;28;20033;-70
2022/07/04 01:33:17;;;;;;;0.00;0.00;;;15.40;79.90;;;;;;5049599;28;20443;-70
2022/07/04 01:35:44;;;;;;;0.00;0.00;;;15.40;80.40;;;;;;5049013;28;20076;-70
2022/07/04 01:38:09;;;;;;;0.00;0.00;;;15.40;80.10;;;;;;5049753;28;20065;-70
2022/07/04 01:40:35;;;;;;;0.00;0.00;;;15.40;80.00;;;;;;5049659;28;20045;-70
2022/07/04 01:43:01;;;;;;;0.00;0.00;;;15.40;80.00;;;;;;5049309;28;20123;-70
2022/07/04 01:45:26;;;;;;;0.00;0.00;;;15.40;80.20;;;;;;5050659;28;20084;-70
2022/07/04 01:47:52;;;;;;;0.00;0.00;;;15.40;79.80;;;;;;5050511;28;20048;-70
2022/07/04 01:50:17;;;;;;;0.00;0.00;;;15.50;79.80;;;;;;5050218;28;20050;-70
2022/07/04 01:52:43;;;;;;;0.00;0.00;;;15.50;79.50;;;;;;5049959;28;20033;-70
2022/07/04 01:55:10;;;;;;;0.00;0.00;;;15.50;79.40;;;;;;5050359;28;20128;-70
2022/07/04 01:57:36;;;;;;;0.00;0.00;;;15.50;79.60;;;;;;5050444;28;20037;-70
2022/07/04 02:02:51;;;;;;;0.00;0.00;;;15.60;79.40;;;;;;5049758;28;20132;-69
2022/07/04 02:05:17;;;;;;;0.00;0.00;;;15.60;79.10;;;;;;5050025;28;20117;-70
2022/07/04 02:07:43;;;;;;;0.00;0.00;;;15.50;79.10;;;;;;5050454;28;20040;-70
2022/07/04 02:10:10;;;;;;;0.00;0.00;;;15.50;79.20;;;;;;5049950;28;20041;-70
2022/07/04 02:15:20;;;;;;;0.00;0.00;;;15.50;79.20;;;;;;5063244;28;20045;-70
2022/07/04 02:17:46;;;;;;;0.00;0.00;;;15.50;79.20;;;;;;5050027;28;20047;-70
2022/07/04 02:20:11;;;;;;;0.00;0.00;;;15.50;79.40;;;;;;5049570;28;20405;-70
2022/07/04 02:22:37;;;;;;;0.00;0.00;;;15.50;79.60;;;;;;5052186;28;20556;-70
2022/07/04 02:25:03;;;;;;;0.00;0.00;;;15.40;79.50;;;;;;5065216;28;20041;-70
2022/07/04 02:27:29;;;;;;;0.00;0.00;;;15.40;79.50;;;;;;5049969;28;20393;-70
2022/07/04 02:29:55;;;;;;;0.00;0.00;;;15.50;79.40;;;;;;5055163;28;20036;-70
2022/07/04 02:32:21;;;;;;;0.00;0.00;;;15.40;79.40;;;;;;5048628;28;20105;-70
2022/07/04 02:34:46;;;;;;;0.00;0.00;;;15.40;79.50;;;;;;5048801;28;20186;-70
2022/07/04 02:37:12;;;;;;;0.00;0.00;;;15.40;79.80;;;;;;5049388;28;20067;-70
2022/07/04 02:39:38;;;;;;;0.00;0.00;;;15.40;79.90;;;;;;5049813;28;20060;-69
2022/07/04 02:42:03;;;;;;;0.00;0.00;;;15.40;79.90;;;;;;5049588;28;20493;-70
2022/07/04 02:44:30;;;;;;;0.00;0.00;;;15.40;79.90;;;;;;5049643;28;20090;-70
2022/07/04 02:46:55;;;;;;;0.00;0.00;;;15.40;79.80;;;;;;5052082;28;20112;-70
2022/07/04 02:49:21;;;;;;;0.00;0.00;;;15.40;79.90;;;;;;5060795;28;20409;-70
2022/07/04 02:51:47;;;;;;;0.00;0.00;;;15.40;80.20;;;;;;5058471;28;20418;-70
2022/07/04 02:54:12;;;;;;;0.00;0.00;;;15.40;80.50;;;;;;5053721;28;20696;-70
2022/07/04 02:56:38;;;;;;;0.00;0.00;;;15.40;80.50;;;;;;5053441;28;21018;-70
2022/07/04 02:59:03;;;;;;;0.00;0.00;;;15.40;80.60;;;;;;5053676;28;20045;-70
2022/07/04 03:01:29;;;;;;;0.00;0.00;;;15.40;80.50;;;;;;5053134;28;20051;-70
2022/07/04 03:03:54;;;;;;;0.00;0.00;;;15.40;80.40;;;;;;5053176;28;20073;-70
2022/07/04 03:06:20;;;;;;;0.00;0.00;;;15.40;80.90;;;;;;5054179;28;20410;-70
2022/07/04 03:08:46;;;;;;;0.00;0.00;;;15.40;81.20;;;;;;5053206;28;20394;-70
2022/07/04 03:11:11;;;;;;;0.00;0.00;;;15.40;81.30;;;;;;5053207;28;20472;-70
2022/07/04 03:13:39;;;;;;;0.00;0.00;;;15.40;81.20;;;;;;5053199;28;20554;-70
2022/07/04 03:16:05;;;;;;;0.00;0.00;;;15.40;81.40;;;;;;5053161;28;20094;-70
2022/07/04 03:18:30;;;;;;;0.00;0.00;;;15.50;81.20;;;;;;5053418;28;20045;-70
2022/07/04 03:20:56;;;;;;;0.00;0.00;;;15.50;81.30;;;;;;5054318;28;20037;-69
2022/07/04 03:23:22;;;;;;;0.00;0.00;;;15.50;81.30;;;;;;5073296;28;20048;-70
2022/07/04 03:25:47;;;;;;;0.00;0.00;;;15.60;81.40;;;;;;5063419;28;20052;-70
2022/07/04 03:28:13;;;;;;;0.00;0.00;;;15.50;81.40;;;;;;5052727;28;20037;-70
2022/07/04 03:30:39;;;;;;;0.00;0.00;;;15.50;81.30;;;;;;5053081;28;20037;-70
2022/07/04 03:33:05;;;;;;;0.00;0.00;;;15.60;81.50;;;;;;5052904;28;20049;-70
2022/07/04 03:35:30;;;;;;;0.00;0.00;;;15.50;81.30;;;;;;5053375;28;20378;-70
2022/07/04 03:37:56;;;;;;;0.00;0.00;;;15.60;81.10;;;;;;5052785;28;20048;-70
2022/07/04 03:40:22;;;;;;;0.00;0.00;;;15.50;81.20;;;;;;5052663;28;20124;-70
2022/07/04 03:42:48;;;;;;;0.00;0.00;;;15.50;81.30;;;;;;5052248;28;20049;-70
2022/07/04 03:45:14;;;;;;;0.00;0.00;;;15.50;81.30;;;;;;5052655;28;20075;-70
2022/07/04 03:47:40;;;;;;;0.00;0.00;;;15.50;81.50;;;;;;5052631;28;20049;-70
2022/07/04 03:50:06;;;;;;;0.00;0.00;;;15.50;81.60;;;;;;5052701;28;20503;-70
2022/07/04 03:52:32;;;;;;;0.00;0.00;;;15.50;81.50;;;;;;5052822;28;20045;-70
2022/07/04 03:54:57;;;;;;;0.00;0.00;;;15.60;81.60;;;;;;5052391;28;20041;-70
2022/07/04 03:57:23;;;;;;;0.00;0.00;;;15.60;81.80;;;;;;5051783;28;20049;-70
2022/07/04 03:59:49;;;;;;;0.00;0.00;;;15.60;81.70;;;;;;5052298;28;20044;-69
2022/07/04 04:02:15;;;;;;;0.00;0.00;;;15.60;81.60;;;;;;5051704;28;20045;-70
2022/07/04 04:07:25;;;;;;;0.00;0.00;;;15.60;81.70;;;;;;5041787;28;20398;-69
2022/07/04 04:09:50;;;;;;;0.00;0.00;;;15.60;81.90;;;;;;5052014;28;20059;-70
2022/07/04 04:12:16;;;;;;;0.00;0.00;;;15.70;82.10;;;;;;5050420;28;20051;-69
2022/07/04 04:14:42;;;;;;;0.00;0.00;;;15.80;82.00;;;;;;5051841;28;20097;-70
2022/07/04 04:17:07;;;;;;;0.00;0.00;;;15.80;82.20;;;;;;5051624;28;20060;-70
2022/07/04 04:19:33;;;;;;;0.00;0.00;;;15.80;82.20;;;;;;5049315;28;20409;-69
2022/07/04 04:21:59;;;;;;;0.00;0.00;;;15.90;82.10;;;;;;5042837;28;20061;-70
2022/07/04 04:24:24;;;;;;;0.00;0.00;;;15.90;82.00;;;;;;5047498;28;20037;-71
2022/07/04 04:26:50;;;;;;;0.00;0.00;;;15.90;82.10;;;;;;5040587;28;20102;-71
2022/07/04 04:29:16;;;;;;;0.00;0.00;;;16.00;82.10;;;;;;5037464;28;20041;-71
2022/07/04 04:31:41;;;;;;;0.00;0.00;;;16.00;82.00;;;;;;5035803;28;20410;-70
2022/07/04 04:34:07;;;;;;;0.00;0.00;;;16.00;81.90;;;;;;5041878;28;20039;-70
2022/07/04 04:36:33;;;;;;;0.00;0.00;;;16.00;82.10;;;;;;5041749;28;20051;-69
2022/07/04 04:39:00;;;;;;;0.00;0.00;;;16.00;82.00;;;;;;5042763;28;20457;-70
2022/07/04 04:41:25;;;;;;;0.00;0.00;;;16.00;82.00;;;;;;5042441;28;20033;-70
2022/07/04 04:43:51;;;;;;;0.00;0.00;;;16.00;82.40;;;;;;5041722;28;20080;-70
2022/07/04 04:46:17;;;;;;;0.00;0.00;;;16.00;82.30;;;;;;5038211;28;20402;-69
2022/07/04 04:48:43;;;;;;;0.00;0.00;;;16.00;82.50;;;;;;5043437;28;20133;-70
2022/07/04 04:51:08;;;;;;;0.00;0.00;;;16.10;82.40;;;;;;5041029;28;20109;-70
2022/07/04 04:53:34;;;;;;;0.00;0.00;;;16.10;82.50;;;;;;5036319;28;20053;-69
2022/07/04 04:55:59;;;;;;;0.00;0.00;;;16.10;82.40;;;;;;5036227;28;20055;-70
2022/07/04 04:58:25;;;;;;;0.25;0.25;;;16.20;82.50;;;;;;5039019;28;20046;-70
2022/07/04 05:00:51;;;;;;;0.00;0.00;;;16.20;82.60;;;;;;5042080;28;20120;-69
2022/07/04 05:03:17;;;;;;;0.20;0.20;;;16.30;82.50;;;;;;5038733;28;20056;-69
2022/07/04 05:05:44;;;;;;;0.00;0.00;;;16.30;82.40;;;;;;5043334;28;20398;-70
2022/07/04 05:08:09;;;;;;;0.00;0.00;;;16.40;82.40;;;;;;5040725;28;20049;-69
2022/07/04 05:10:35;;;;;;;0.00;0.00;;;16.40;82.30;;;;;;5043788;28;20029;-70
2022/07/04 05:13:02;;;;;;;0.00;0.00;;;16.50;82.30;;;;;;5040006;28;20059;-69
2022/07/04 05:15:27;;;;;;;0.00;0.00;;;16.50;82.40;;;;;;5042285;28;20063;-69
2022/07/04 05:17:53;;;;;;;0.00;0.00;;;16.60;82.40;;;;;;5040301;28;20135;-70
2022/07/04 05:20:19;;;;;;;0.00;0.00;;;16.60;82.20;;;;;;5038277;28;20147;-69
2022/07/04 05:22:44;;;;;;;0.00;0.00;;;16.70;82.20;;;;;;5036630;28;20538;-70
2022/07/04 05:25:10;;;;;;;0.00;0.00;;;16.80;82.20;;;;;;5046990;28;20045;-70
2022/07/04 05:27:37;;;;;;;0.00;0.00;;;16.80;82.30;;;;;;5048962;28;20134;-69
2022/07/04 05:30:03;;;;;;;0.00;0.00;;;16.90;82.70;;;;;;5048673;28;20041;-70
2022/07/04 05:32:29;;;;;;;0.00;0.00;;;16.90;82.80;;;;;;5049076;28;20472;-70
2022/07/04 05:34:54;;;;;;;0.00;0.00;;;17.10;82.70;;;;;;5048248;28;20037;-70
2022/07/04 05:37:20;;;;;;;0.00;0.00;;;17.10;82.90;;;;;;5050441;28;20061;-70
2022/07/04 05:39:46;;;;;;;0.00;0.00;;;17.20;82.70;;;;;;5046468;28;20443;-70
2022/07/04 05:42:12;;;;;;;0.00;0.00;;;17.20;82.90;;;;;;5042831;28;20088;-70
2022/07/04 05:44:37;;;;;;;0.00;0.00;;;17.20;83.20;;;;;;5047057;28;20513;-69
2022/07/04 05:47:03;;;;;;;0.00;0.00;;;17.30;83.20;;;;;;5047573;28;20073;-69
2022/07/04 05:49:29;;;;;;;0.00;0.00;;;17.40;82.90;;;;;;5047742;28;20045;-70
2022/07/04 05:51:54;;;;;;;0.00;0.00;;;17.50;82.90;;;;;;5047865;28;20041;-69
2022/07/04 05:54:20;;;;;;;0.00;0.00;;;17.60;82.80;;;;;;5048469;28;20124;-70
2022/07/04 05:56:45;;;;;;;0.08;0.08;;;17.60;82.20;;;;;;5064372;28;20044;-71
2022/07/04 05:59:11;;;;;;;0.00;0.00;;;17.60;81.50;;;;;;5048364;28;20126;-71
2022/07/04 06:01:37;;;;;;;0.68;0.65;;;17.60;81.90;;;;;;5048637;28;20505;-70
2022/07/04 06:04:06;;;;;;;0.00;0.00;;;17.60;82.20;;;;;;5047811;28;20052;-70
2022/07/04 06:06:32;;;;;;;0.00;0.00;;;17.60;82.40;;;;;;5048841;28;20088;-70
2022/07/04 06:08:57;;;;;;;0.03;0.03;;;17.60;82.40;;;;;;5047772;28;20512;-70
2022/07/04 06:11:23;;;;;;;0.00;0.00;;;17.60;82.20;;;;;;5048388;28;20056;-69
2022/07/04 06:13:49;;;;;;;0.00;0.00;;;17.60;82.20;;;;;;5047298;28;20558;-70
2022/07/04 06:16:16;;;;;;;0.00;0.00;;;17.50;82.20;;;;;;5047442;28;20110;-69
2022/07/04 06:18:42;;;;;;;0.00;0.00;;;17.50;82.40;;;;;;5049500;28;20079;-67
2022/07/04 06:21:08;;;;;;;0.00;0.00;;;17.50;82.60;;;;;;5048510;28;20048;-67
2022/07/04 06:23:33;;;;;;;0.00;0.00;;;17.40;82.70;;;;;;5048485;28;20045;-65
2022/07/04 06:25:59;;;;;;;0.00;0.00;;;17.40;82.90;;;;;;5048546;28;20053;-65
2022/07/04 06:28:25;;;;;;;0.00;0.00;;;17.50;83.00;;;;;;5047697;28;20048;-65
2022/07/04 06:30:50;;;;;;;0.00;0.00;;;17.60;83.00;;;;;;5047812;28;20080;-65
2022/07/04 06:33:16;;;;;;;0.00;0.00;;;17.60;82.90;;;;;;5058131;28;20067;-65
2022/07/04 06:35:58;;;;;;;0.00;0.00;;;17.60;82.90;;;;;;5047422;28;20036;-70
2022/07/04 06:38:28;;;;;;;0.00;0.00;;;17.60;82.70;;;;;;5037661;28;20112;-70
2022/07/04 06:40:58;;;;;;;0.00;0.00;;;17.60;82.50;;;;;;5029329;28;20042;-71
2022/07/04 06:43:25;;;;;;;0.10;0.10;;;17.60;81.90;;;;;;5034929;28;20563;-70
2022/07/04 06:45:51;;;;;;;0.00;0.00;;;17.60;81.70;;;;;;5041975;28;20045;-70
2022/07/04 06:48:18;;;;;;;0.00;0.00;;;17.70;81.60;;;;;;5033807;28;20033;-70
2022/07/04 06:50:44;;;;;;;0.00;0.00;;;17.80;81.40;;;;;;5061673;28;20056;-69
2022/07/04 06:53:10;;;;;;;0.00;0.00;;;17.90;80.70;;;;;;5065259;28;20131;-70
2022/07/04 06:55:42;;;;;;;0.00;0.00;;;18.00;79.70;;;;;;5048051;28;20545;-70
2022/07/04 06:58:08;;;;;;;0.00;0.00;;;18.10;78.90;;;;;;5047900;28;20041;-70
2022/07/04 07:00:35;;;;;;;0.32;0.32;;;18.20;77.70;;;;;;5043116;28;20037;-70
2022/07/04 07:03:02;;;;;;;0.00;0.00;;;18.10;77.90;;;;;;5028895;28;20045;-70
2022/07/04 07:05:28;;;;;;;0.00;0.00;;;18.10;78.10;;;;;;5040924;28;20049;-70
2022/07/04 07:07:55;;;;;;;0.00;0.00;;;18.10;77.50;;;;;;5048777;28;20711;-70
2022/07/04 07:10:21;;;;;;;0.00;0.00;;;18.00;77.70;;;;;;5066853;28;20033;-70
2022/07/04 07:12:47;;;;;;;0.00;0.00;;;18.10;77.00;;;;;;5068610;28;20098;-70
2022/07/04 07:15:13;;;;;;;0.00;0.00;;;18.10;76.80;;;;;;5068406;28;20044;-70
2022/07/04 07:17:39;;;;;;;0.00;0.00;;;18.30;76.90;;;;;;5056161;28;20448;-70
2022/07/04 07:20:06;;;;;;;0.00;0.00;;;18.40;75.90;;;;;;5047942;28;20383;-70
2022/07/04 07:22:32;;;;;;;0.30;0.30;;;18.30;74.70;;;;;;5048154;28;20049;-72
2022/07/04 07:24:57;;;;;;;0.52;0.35;;;18.40;75.00;;;;;;5048199;28;20397;-70
2022/07/04 07:27:23;;;;;;;0.00;0.00;;;18.40;74.90;;;;;;5048469;28;20049;-70
2022/07/04 07:29:48;;;;;;;0.20;0.20;;;18.40;74.70;;;;;;5038198;28;20128;-70
2022/07/04 07:32:14;;;;;;;0.00;0.00;;;18.50;75.00;;;;;;5043741;28;20041;-70
2022/07/04 07:34:40;;;;;;;1.55;0.88;;;18.50;74.20;;;;;;5044333;28;20043;-70
2022/07/04 07:37:06;;;;;;;0.00;0.00;;;18.50;74.40;;;;;;5045657;28;20076;-69
2022/07/04 07:39:32;;;;;;;0.00;0.00;;;18.50;74.60;;;;;;5050817;28;20043;-70
2022/07/04 07:41:57;;;;;;;0.00;0.00;;;18.40;74.70;;;;;;5042950;28;20044;-70
2022/07/04 07:44:23;;;;;;;0.00;0.00;;;18.40;74.60;;;;;;5039533;28;20127;-70
2022/07/04 07:46:48;;;;;;;0.00;0.00;;;18.40;73.80;;;;;;5041692;28;20466;-70
2022/07/04 07:49:14;;;;;;;0.00;0.00;;;18.30;73.60;;;;;;5050479;28;20545;-68
2022/07/04 07:51:40;;;;;;;0.00;0.00;;;18.30;74.70;;;;;;5051530;28;20064;-70
2022/07/04 07:54:05;;;;;;;0.00;0.00;;;18.30;74.40;;;;;;5038238;28;20037;-69
2022/07/04 07:56:31;;;;;;;0.00;0.00;;;18.40;74.60;;;;;;5033246;28;20387;-69
2022/07/04 07:58:57;;;;;;;0.00;0.00;;;18.50;73.90;;;;;;5051716;28;20041;-69
2022/07/04 08:01:22;;;;;;;0.00;0.00;;;18.50;74.00;;;;;;5035225;28;20096;-69
2022/07/04 08:06:33;;;;;;;0.00;0.00;;;18.60;71.50;;;;;;5031863;28;20077;-70
2022/07/04 08:08:59;;;;;;;0.00;0.00;;;18.70;68.50;;;;;;5071268;28;20048;-70
2022/07/04 08:11:25;;;;;;;0.00;0.00;;;18.80;69.90;;;;;;5071236;28;20052;-69
2022/07/04 08:13:51;;;;;;;0.00;0.00;;;18.80;69.80;;;;;;5070981;28;20044;-70
2022/07/04 08:16:17;;;;;;;0.00;0.00;;;18.80;69.80;;;;;;5071296;28;20405;-70
2022/07/04 08:18:42;;;;;;;0.00;0.00;;;18.90;69.40;;;;;;5071290;28;20071;-71
2022/07/04 08:21:08;;;;;;;0.00;0.00;;;18.90;68.70;;;;;;5071190;28;20055;-71
2022/07/04 08:23:34;;;;;;;0.00;0.00;;;18.90;69.20;;;;;;5056983;28;20052;-70
2022/07/04 08:26:00;;;;;;;0.00;0.00;;;18.90;69.50;;;;;;5051126;28;20037;-71
2022/07/04 08:28:27;;;;;;;0.00;0.00;;;18.90;69.10;;;;;;5038570;28;20050;-70
2022/07/04 08:30:54;;;;;;;0.00;0.00;;;19.00;69.10;;;;;;5031354;28;20041;-71
2022/07/04 08:33:19;;;;;;;0.00;0.00;;;19.20;68.80;;;;;;5030713;28;20049;-71
2022/07/04 08:35:45;;;;;;;0.00;0.00;;;19.20;66.30;;;;;;5031391;28;20048;-71
2022/07/04 08:38:11;;;;;;;0.00;0.00;;;19.10;65.70;;;;;;5055030;28;20041;-70
2022/07/04 08:40:36;;;;;;;0.00;0.00;;;19.10;66.30;;;;;;5066584;28;20053;-70
2022/07/04 08:43:03;;;;;;;0.00;0.00;;;19.10;66.30;;;;;;5048943;28;20124;-70
2022/07/04 08:45:35;;;;;;;0.00;0.00;;;18.90;66.60;;;;;;5050135;28;20049;-71
2022/07/04 08:48:06;;;;;;;0.00;0.00;;;18.70;66.90;;;;;;5050603;28;20044;-71
2022/07/04 08:50:34;;;;;;;0.00;0.00;;;18.70;67.70;;;;;;5050534;28;20036;-70
2022/07/04 08:53:09;;;;;;;0.00;0.00;;;18.70;68.40;;;;;;5063380;28;20125;-70
2022/07/04 08:58:29;;;;;;;0.00;0.00;;;18.70;69.40;;;;;;5043895;28;20064;-71
2022/07/04 09:01:00;;;;;;;0.00;0.00;;;18.60;68.60;;;;;;5049616;28;20460;-71
2022/07/04 09:03:27;;;;;;;0.00;0.00;;;18.60;69.40;;;;;;5033581;28;20053;-70
2022/07/04 09:05:53;;;;;;;0.10;0.10;;;18.60;69.50;;;;;;5033735;28;20041;-70
2022/07/04 09:08:19;;;;;;;0.00;0.00;;;18.60;69.90;;;;;;5044990;28;20042;-70
2022/07/04 09:10:46;;;;;;;0.00;0.00;;;18.50;70.60;;;;;;5050585;28;20057;-70
2022/07/04 09:13:14;;;;;;;0.00;0.00;;;18.50;70.10;;;;;;5049806;28;20053;-70
2022/07/04 09:15:42;;;;;;;0.00;0.00;;;18.50;69.60;;;;;;5050245;28;20049;-71
2022/07/04 09:18:26;;;;;;;0.00;0.00;;;18.50;69.20;;;;;;5049639;28;20359;-70
2022/07/04 09:20:53;;;;;;;0.00;0.00;;;18.50;69.30;;;;;;5049916;28;20076;-71
2022/07/04 09:23:27;;;;;;;0.32;0.32;;;18.60;69.30;;;;;;5053248;28;20047;-70
2022/07/04 09:26:13;;;;;;;0.00;0.00;;;18.60;67.80;;;;;;5049919;28;20052;-71
2022/07/04 09:28:41;;;;;;;0.00;0.00;;;18.60;67.80;;;;;;5050060;28;20764;-71
2022/07/04 09:31:14;;;;;;;0.00;0.00;;;18.50;67.70;;;;;;5049490;28;20053;-70
2022/07/04 09:33:45;;;;;;;16.33;0.90;;;18.40;68.00;;;;;;5046025;28;20107;-72
2022/07/04 09:36:15;;;;;;;0.00;0.00;;;18.50;68.40;;;;;;5049462;28;20055;-71
2022/07/04 09:38:41;;;;;;;0.00;0.00;;;18.60;66.40;;;;;;5058626;28;20028;-71
2022/07/04 09:41:25;;;;;;;0.00;0.00;;;18.80;66.50;;;;;;5051631;28;20791;-71
2022/07/04 09:44:00;;;;;;;0.75;0.75;;;19.00;66.40;;;;;;5049576;28;20041;-71
2022/07/04 09:46:26;;;;;;;0.00;0.00;;;19.10;63.60;;;;;;5049487;28;20493;-71
2022/07/04 09:48:52;;;;;;;0.00;0.00;;;19.10;64.90;;;;;;5049510;28;20513;-71
2022/07/04 09:51:37;;;;;;;0.00;0.00;;;19.10;64.00;;;;;;5049446;28;20041;-71
2022/07/04 09:54:15;;;;;;;4.47;1.65;;;19.10;62.50;;;;;;5048195;28;20052;-71
2022/07/04 09:56:42;;;;;;;0.00;0.00;;;19.20;61.40;;;;;;5032225;28;20123;-71
2022/07/04 09:59:07;;;;;;;0.00;0.00;;;19.30;62.10;;;;;;5055769;28;20037;-70
2022/07/04 10:01:33;;;;;;;0.00;0.00;;;19.40;61.60;;;;;;5037820;28;20032;-71
2022/07/04 10:03:59;;;;;;;0.00;0.00;;;19.40;61.70;;;;;;5049285;28;20091;-70
2022/07/04 10:06:25;;;;;;;0.00;0.00;;;19.50;61.30;;;;;;5049002;28;20110;-70
2022/07/04 10:08:51;;;;;;;0.00;0.00;;;19.60;61.00;;;;;;5063388;28;20155;-70
2022/07/04 10:11:18;;;;;;;0.00;0.00;;;19.50;58.20;;;;;;5049825;28;20136;-70
2022/07/04 10:13:44;;;;;;;0.00;0.00;;;19.50;58.30;;;;;;5048229;28;20124;-71
2022/07/04 10:16:11;;;;;;;0.00;0.00;;;19.60;58.70;;;;;;5048350;28;20506;-69
2022/07/04 10:18:36;;;;;;;0.00;0.00;;;19.70;58.30;;;;;;5048606;28;20041;-69
2022/07/04 10:21:02;;;;;;;0.00;0.00;;;19.80;57.90;;;;;;5047873;28;20045;-69
2022/07/04 10:23:31;;;;;;;0.00;0.00;;;19.70;59.60;;;;;;5048609;28;20049;-70
2022/07/04 10:25:57;;;;;;;0.00;0.00;;;19.60;57.90;;;;;;5062565;28;20167;-69
2022/07/04 10:28:23;;;;;;;0.00;0.00;;;19.60;59.50;;;;;;5048759;28;20059;-70
2022/07/04 10:30:54;;;;;;;3.20;1.88;;;19.70;60.30;;;;;;5043070;28;20383;-69
2022/07/04 10:33:25;;;;;;;0.25;0.25;;;19.50;56.80;;;;;;5029291;28;20183;-69
2022/07/04 10:35:54;;;;;;;0.00;0.00;;;19.50;58.30;;;;;;5044249;28;20044;-69
2022/07/04 10:38:25;;;;;;;0.00;0.00;;;19.50;57.90;;;;;;5048732;28;20088;-69
2022/07/04 10:41:01;;;;;;;0.20;0.20;;;19.60;59.00;;;;;;5048842;28;20045;-70
2022/07/04 10:43:30;;;;;;;1.85;0.90;;;19.50;56.80;;;;;;5048877;28;20517;-70
2022/07/04 10:46:16;;;;;;;0.00;0.00;;;19.50;54.10;;;;;;5048957;28;20157;-69
2022/07/04 10:48:55;;;;;;;0.00;0.00;;;19.50;54.10;;;;;;5048419;28;20135;-69
2022/07/04 10:51:39;;;;;;;2.20;1.17;;;19.50;55.00;;;;;;5048258;28;20049;-70
2022/07/04 10:54:23;;;;;;;0.00;0.00;;;19.50;55.80;;;;;;5047234;28;20049;-69
2022/07/04 10:56:53;;;;;;;0.00;0.00;;;19.60;55.90;;;;;;5047265;28;20069;-70
2022/07/04 10:59:27;;;;;;;0.00;0.00;;;19.60;55.50;;;;;;5048997;28;20051;-70
2022/07/04 11:02:07;;;;;;;0.10;0.10;;;19.70;56.60;;;;;;5048943;28;20062;-70
2022/07/04 11:05:07;;;;;;;0.00;0.00;;;19.80;56.90;;;;;;5032933;28;20116;-70
2022/07/04 11:07:35;;;;;;;0.00;0.00;;;19.80;56.70;;;;;;5032619;28;20494;-70
2022/07/04 11:10:15;;;;;;;0.00;0.00;;;19.80;57.70;;;;;;5052945;28;20052;-71
2022/07/04 11:13:06;;;;;;;0.00;0.00;;;19.80;58.90;;;;;;5051299;28;20107;-71
2022/07/04 11:15:31;;;;;;;0.00;0.00;;;19.60;58.20;;;;;;5038754;28;20471;-70
2022/07/04 11:17:58;;;;;;;7.90;0.98;;;19.60;59.30;;;;;;5032439;28;20128;-71
2022/07/04 11:20:27;;;;;;;0.00;0.00;;;19.40;59.40;;;;;;5032362;28;20048;-71
2022/07/04 11:23:02;;;;;;;0.00;0.00;;;19.60;60.30;;;;;;5044089;28;20049;-71
2022/07/04 11:25:28;;;;;;;0.00;0.00;;;19.60;60.20;;;;;;5051915;28;20072;-71
2022/07/04 11:27:54;;;;;;;0.00;0.00;;;19.50;58.90;;;;;;5052030;28;20559;-71
2022/07/04 11:30:19;;;;;;;0.00;0.00;;;19.60;59.70;;;;;;5051831;28;20072;-70
2022/07/04 11:32:45;;;;;;;0.00;0.00;;;19.50;58.50;;;;;;5049188;28;20650;-71
2022/07/04 11:35:11;;;;;;;0.00;0.00;;;19.30;59.10;;;;;;5047172;28;20049;-71
2022/07/04 11:37:36;;;;;;;1.10;0.90;;;19.50;58.90;;;;;;5050705;28;20099;-71
2022/07/04 11:45:51;;;;;;;0.00;0.00;;;20.10;56.70;;;;;;5051503;28;20058;-71
2022/07/04 11:48:27;;;;;;;0.00;0.00;;;20.00;55.50;;;;;;5051093;28;20043;-70
2022/07/04 11:50:53;;;;;;;0.00;0.00;;;20.00;53.70;;;;;;5051476;28;20037;-70
2022/07/04 11:53:20;;;;;;;0.00;0.00;;;20.10;54.40;;;;;;5062472;28;20050;-65
2022/07/04 11:55:56;;;;;;;0.00;0.00;;;20.10;52.60;;;;;;5051275;28;20056;-67
2022/07/04 11:58:22;;;;;;;0.00;0.00;;;20.10;51.60;;;;;;5050294;28;20057;-68
2022/07/04 12:00:48;;;;;;;0.00;0.00;;;20.20;52.70;;;;;;5051331;28;20083;-68
2022/07/04 12:03:14;;;;;;;0.00;0.00;;;20.20;51.50;;;;;;5050144;28;20126;-67
2022/07/04 12:05:39;;;;;;;0.00;0.00;;;20.10;52.20;;;;;;5051296;28;20033;-67
2022/07/04 12:08:08;;;;;;;0.00;0.00;;;20.10;52.10;;;;;;5050198;28;20078;-67
2022/07/04 12:10:34;;;;;;;0.00;0.00;;;20.10;52.80;;;;;;5047399;28;20494;-67
2022/07/04 12:13:06;;;;;;;0.00;0.00;;;20.10;52.70;;;;;;5043047;28;20049;-66
2022/07/04 12:15:37;;;;;;;;;;;20.10;54.00;;;;;;5049833;28;20052;-67
2022/07/04 12:18:05;;;;;;;0.00;0.00;;;20.20;53.90;;;;;;5044719;28;20922;-67
2022/07/04 12:20:31;;;;;;;0.00;0.00;;;20.10;51.30;;;;;;5047322;28;20785;-67
2022/07/04 12:23:00;;;;;;;0.00;0.00;;;20.30;52.00;;;;;;5050732;28;20060;-66
2022/07/04 12:25:32;;;;;;;0.00;0.00;;;20.40;53.80;;;;;;5051015;28;20628;-67
2022/07/04 12:28:01;;;;;;;0.00;0.00;;;20.50;52.20;;;;;;5050792;28;20045;-66
2022/07/04 12:30:28;;;;;;;0.00;0.00;;;20.60;52.50;;;;;;5046788;28;20041;-67
2022/07/04 12:33:03;;;;;;;0.00;0.00;;;20.60;52.40;;;;;;5050380;28;20041;-67
2022/07/04 12:35:38;;;;;;;0.00;0.00;;;20.50;53.10;;;;;;5044025;28;20755;-67
2022/07/04 12:38:15;;;;;;;0.00;0.00;;;20.40;53.80;;;;;;5030295;28;20053;-67
2022/07/04 12:40:59;;;;;;;0.00;0.00;;;20.50;55.60;;;;;;5049587;28;20422;-66
2022/07/04 12:43:46;;;;;;;0.00;0.00;;;20.40;55.50;;;;;;5048602;28;20085;-65
2022/07/04 12:46:27;;;;;;;0.00;0.00;;;20.30;54.90;;;;;;5049578;28;20099;-66
2022/07/04 12:48:53;;;;;;;0.00;0.00;;;20.20;54.50;;;;;;5046299;28;20132;-66
2022/07/04 12:51:25;;;;;;;0.00;0.00;;;20.30;54.50;;;;;;5032778;28;20596;-66
2022/07/04 12:53:54;;;;;;;0.00;0.00;;;20.20;55.30;;;;;;5048320;28;20060;-67
2022/07/04 12:56:36;;;;;;;0.00;0.00;;;20.10;55.70;;;;;;5049752;28;20052;-66
2022/07/04 12:59:03;;;;;;;0.00;0.00;;;20.30;54.60;;;;;;5047558;28;20056;-67
2022/07/04 13:01:29;;;;;;;0.00;0.00;;;20.30;54.50;;;;;;5033527;28;20037;-67
2022/07/04 13:03:55;;;;;;;0.00;0.00;;;20.40;55.60;;;;;;5047340;28;20075;-66
2022/07/04 13:06:21;;;;;;;0.00;0.00;;;20.40;53.60;;;;;;5048710;28;20561;-67
2022/07/04 13:08:47;;;;;;;0.10;0.10;;;20.50;54.90;;;;;;5049348;28;20053;-66